NC20 weather

Canaan Air Base
New Bern, North Carolina, United States

Public forecast

Using degrees Fahrenheit for public forecast. Weather courtesy of forecast.io.

Closest aviation weather report (METAR) to Canaan Air Base

Closest report is Coastal Carolina Regional Airport, 5.9 nm (11.0 km) E. Retrieved 2019/10/16 09:54 UTC (35 minutes ago):

KEWN 160954Z 16004KT 10SM -RA FEW025 FEW060 OVC095 20/19 A2988 RMK AO2 RAB44 SLP119 P0000 T02000194

Closest aviation forecast (TAF) to Canaan Air Base

Closest forecast is Coastal Carolina Regional Airport, 5.9 nm (11.0 km) E. Retrieved 2019/10/16 06:42 UTC (4 hours ago):

TAF KEWN 160540Z 1606/1706 12003KT P6SM SCT040 BKN100 FM161200 15006KT 5SM -SHRA OVC025 FM161500 16008G16KT 4SM SHRA OVC007 FM162100 28010G21KT P6SM BKN025 FM170000 29010G19KT P6SM SCT050